Map

Track Data

SID SEASON NUMBER BASIN SUBBASIN NAME ISO_TIME NATURE LAT LON WMO_WIND WMO_PRES WMO_AGENCY TRACK_TYPE DIST2LAND LANDFALL IFLAG USA_AGENCY USA_ATCF_ID USA_LAT USA_LON USA_RECORD USA_STATUS USA_WIND USA_PRES USA_SSHS USA_R34_NE USA_R34_SE USA_R34_SW USA_R34_NW USA_R50_NE USA_R50_SE USA_R50_SW USA_R50_NW USA_R64_NE USA_R64_SE USA_R64_SW USA_R64_NW USA_POCI USA_ROCI USA_RMW USA_EYE TOKYO_LAT TOKYO_LON TOKYO_GRADE TOKYO_WIND TOKYO_PRES TOKYO_R50_DIR TOKYO_R50_LONG TOKYO_R50_SHORT TOKYO_R30_DIR TOKYO_R30_LONG TOKYO_R30_SHORT TOKYO_LAND CMA_LAT CMA_LON CMA_CAT CMA_WIND CMA_PRES HKO_LAT HKO_LON HKO_CAT HKO_WIND HKO_PRES NEWDELHI_LAT NEWDELHI_LON NEWDELHI_GRADE NEWDELHI_WIND NEWDELHI_PRES NEWDELHI_CI NEWDELHI_DP NEWDELHI_POCI REUNION_LAT REUNION_LON REUNION_TYPE REUNION_WIND REUNION_PRES REUNION_TNUM REUNION_CI REUNION_RMW REUNION_R34_NE REUNION_R34_SE REUNION_R34_SW REUNION_R34_NW REUNION_R50_NE REUNION_R50_SE REUNION_R50_SW REUNION_R50_NW REUNION_R64_NE REUNION_R64_SE REUNION_R64_SW REUNION_R64_NW BOM_LAT BOM_LON BOM_TYPE BOM_WIND BOM_PRES BOM_TNUM BOM_CI BOM_RMW BOM_R34_NE BOM_R34_SE BOM_R34_SW BOM_R34_NW BOM_R50_NE BOM_R50_SE BOM_R50_SW BOM_R50_NW BOM_R64_NE BOM_R64_SE BOM_R64_SW BOM_R64_NW BOM_ROCI BOM_POCI BOM_EYE BOM_POS_METHOD BOM_PRES_METHOD NADI_LAT NADI_LON NADI_CAT NADI_WIND NADI_PRES WELLINGTON_LAT WELLINGTON_LON WELLINGTON_WIND WELLINGTON_PRES DS824_LAT DS824_LON DS824_STAGE DS824_WIND DS824_PRES TD9636_LAT TD9636_LON TD9636_STAGE TD9636_WIND TD9636_PRES TD9635_LAT TD9635_LON TD9635_WIND TD9635_PRES TD9635_ROCI NEUMANN_LAT NEUMANN_LON NEUMANN_CLASS NEUMANN_WIND NEUMANN_PRES MLC_LAT MLC_LON MLC_CLASS MLC_WIND MLC_PRES USA_GUST BOM_GUST BOM_GUST_PER REUNION_GUST REUNION_GUST_PER USA_SEAHGT USA_SEARAD_NE USA_SEARAD_SE USA_SEARAD_SW USA_SEARAD_NW STORM_SPEED STORM_DIR
1929262N23296 1929 60 NA NA NOT_NAMED 1929-09-19 00:00:00 TS 23.0000 -63.6000 30 hurdat_atl main 554 551 O_____________ hurdat_atl AL021929 23.0000 -63.6000 TD 30 -1 2 270
1929262N23296 1929 60 NA NA NOT_NAMED 1929-09-19 03:00:00 TS 23.0000 -63.7000 main 551 547 P_____________ AL021929 23.0000 -63.7000 TD 30 -1 2 270
1929262N23296 1929 60 NA NA NOT_NAMED 1929-09-19 06:00:00 TS 23.0000 -63.8000 30 hurdat_atl main 547 543 O_____________ hurdat_atl AL021929 23.0000 -63.8000 TD 30 -1 2 270
1929262N23296 1929 60 NA NA NOT_NAMED 1929-09-19 09:00:00 TS 23.0000 -63.9000 main 543 540 P_____________ AL021929 23.0000 -63.9000 TD 30 -1 2 270
1929262N23296 1929 60 NA NA NOT_NAMED 1929-09-19 12:00:00 TS 23.0000 -64.0000 30 hurdat_atl main 540 537 O_____________ hurdat_atl AL021929 23.0000 -64.0000 TD 30 -1 2 268
1929262N23296 1929 60 NA NA NOT_NAMED 1929-09-19 15:00:00 TS 22.9925 -64.1000 main 537 534 P_____________ AL021929 22.9925 -64.1000 TD 30 -1 2 270
1929262N23296 1929 60 NA NA NOT_NAMED 1929-09-19 18:00:00 TS 23.0000 -64.2000 30 hurdat_atl main 534 531 O_____________ hurdat_atl AL021929 23.0000 -64.2000 TD 30 -1 2 288
1929262N23296 1929 60 NA NA NOT_NAMED 1929-09-19 21:00:00 TS 23.0500 -64.2925 main 531 531 P_____________ AL021929 23.0500 -64.2925 TD 30 -1 2 299
1929262N23296 1929 60 NA NA NOT_NAMED 1929-09-20 00:00:00 TS 23.1000 -64.4000 30 hurdat_atl main 540 537 O_____________ hurdat_atl AL021929 23.1000 -64.4000 TD 30 -1 2 282
1929262N23296 1929 60 NA NA NOT_NAMED 1929-09-20 03:00:00 TS 23.1000 -64.5425 main 537 533 P_____________ AL021929 23.1000 -64.5425 TD 30 -1 3 270
1929262N23296 1929 60 NA NA NOT_NAMED 1929-09-20 06:00:00 TS 23.1000 -64.7000 30 hurdat_atl main 533 532 O_____________ hurdat_atl AL021929 23.1000 -64.7000 TD 30 -1 3 280
1929262N23296 1929 60 NA NA NOT_NAMED 1929-09-20 09:00:00 TS 23.1499 -64.8350 main 532 532 P_____________ AL021929 23.1499 -64.8350 TD 30 -1 3 290
1929262N23296 1929 60 NA NA NOT_NAMED 1929-09-20 12:00:00 TS 23.2000 -65.0000 30 hurdat_atl main 540 538 O_____________ hurdat_atl AL021929 23.2000 -65.0000 TD 30 -1 4 278
1929262N23296 1929 60 NA NA NOT_NAMED 1929-09-20 15:00:00 TS 23.2000 -65.2351 main 538 536 P_____________ AL021929 23.2000 -65.2351 TD 30 -1 5 270
1929262N23296 1929 60 NA NA NOT_NAMED 1929-09-20 18:00:00 TS 23.2000 -65.5000 30 hurdat_atl main 536 536 O_____________ hurdat_atl AL021929 23.2000 -65.5000 TD 30 -1 5 275
1929262N23296 1929 60 NA NA NOT_NAMED 1929-09-20 21:00:00 TS 23.2425 -65.7500 main 536 536 P_____________ AL021929 23.2425 -65.7500 TD 30 -1 5 282
1929262N23296 1929 60 NA NA NOT_NAMED 1929-09-21 00:00:00 TS 23.3000 -66.0000 30 hurdat_atl main 547 547 O_____________ hurdat_atl AL021929 23.3000 -66.0000 TD 30 -1 5 283
1929262N23296 1929 60 NA NA NOT_NAMED 1929-09-21 03:00:00 TS 23.3500 -66.2500 main 544 542 P_____________ AL021929 23.3500 -66.2500 TD 30 -1 5 282
1929262N23296 1929 60 NA NA NOT_NAMED 1929-09-21 06:00:00 TS 23.4000 -66.5000 30 hurdat_atl main 542 531 O_____________ hurdat_atl AL021929 23.4000 -66.5000 TD 30 -1 5 282
1929262N23296 1929 60 NA NA NOT_NAMED 1929-09-21 09:00:00 TS 23.4500 -66.7500 main 526 526 P_____________ AL021929 23.4500 -66.7500 TD 30 -1 5 282
1929262N23296 1929 60 NA NA NOT_NAMED 1929-09-21 12:00:00 TS 23.5000 -67.0000 30 hurdat_atl main 526 517 O_____________ hurdat_atl AL021929 23.5000 -67.0000 TD 30 -1 5 282
1929262N23296 1929 60 NA NA NOT_NAMED 1929-09-21 15:00:00 TS 23.5500 -67.2500 main 513 513 P_____________ AL021929 23.5500 -67.2500 TD 30 -1 5 282
1929262N23296 1929 60 NA NA NOT_NAMED 1929-09-21 18:00:00 TS 23.6000 -67.5000 30 hurdat_atl main 515 506 O_____________ hurdat_atl AL021929 23.6000 -67.5000 TD 30 -1 5 282
1929262N23296 1929 60 NA NA NOT_NAMED 1929-09-21 21:00:00 TS 23.6500 -67.7500 main 501 501 P_____________ AL021929 23.6500 -67.7500 TD 32 -1 5 282
1929262N23296 1929 60 NA NA NOT_NAMED 1929-09-22 00:00:00 TS 23.7000 -68.0000 35 hurdat_atl main 502 494 O_____________ hurdat_atl AL021929 23.7000 -68.0000 TS 35 0 5 281
1929262N23296 1929 60 NA NA NOT_NAMED 1929-09-22 03:00:00 TS 23.7425 -68.2501 main 490 490 P_____________ AL021929 23.7425 -68.2501 TS 37 0 5 282
1929262N23296 1929 60 NA NA NOT_NAMED 1929-09-22 06:00:00 TS 23.8000 -68.5000 40 hurdat_atl main 494 488 O_____________ hurdat_atl AL021929 23.8000 -68.5000 TS 40 0 5 286
1929262N23296 1929 60 NA NA NOT_NAMED 1929-09-22 09:00:00 TS 23.8775 -68.7501 main 494 490 P_____________ AL021929 23.8775 -68.7501 TS 42 0 5 294
1929262N23296 1929 60 NA NA NOT_NAMED 1929-09-22 12:00:00 TS 24.0000 -69.0000 45 hurdat_atl main 497 494 O_____________ hurdat_atl AL021929 24.0000 -69.0000 TS 45 0 5 303
1929262N23296 1929 60 NA NA NOT_NAMED 1929-09-22 15:00:00 TS 24.1700 -69.2501 main 506 506 P_____________ AL021929 24.1700 -69.2501 TS 47 0 6 311
1929262N23296 1929 60 NA NA NOT_NAMED 1929-09-22 18:00:00 TS 24.4000 -69.5000 50 hurdat_atl main 506 506 O_____________ hurdat_atl AL021929 24.4000 -69.5000 TS 50 0 7 319
1929262N23296 1929 60 NA NA NOT_NAMED 1929-09-22 21:00:00 TS 24.6849 -69.7426 main 516 510 P_____________ AL021929 24.6849 -69.7426 TS 52 0 8 323
1929262N23296 1929 60 NA NA NOT_NAMED 1929-09-23 00:00:00 TS 25.0000 -70.0000 55 hurdat_atl main 523 523 O_____________ hurdat_atl AL021929 25.0000 -70.0000 TS 55 0 8 322
1929262N23296 1929 60 NA NA NOT_NAMED 1929-09-23 03:00:00 TS 25.3150 -70.2925 main 534 534 P_____________ AL021929 25.3150 -70.2925 TS 57 0 8 318
1929262N23296 1929 60 NA NA NOT_NAMED 1929-09-23 06:00:00 TS 25.6000 -70.6000 60 hurdat_atl main 549 549 O_____________ hurdat_atl AL021929 25.6000 -70.6000 TS 60 0 7 313
1929262N23296 1929 60 NA NA NOT_NAMED 1929-09-23 09:00:00 TS 25.8149 -70.8927 main 556 556 P_____________ AL021929 25.8149 -70.8927 TS 62 0 7 307
1929262N23296 1929 60 NA NA NOT_NAMED 1929-09-23 12:00:00 TS 26.0000 -71.2000 65 hurdat_atl main 566 563 O_____________ hurdat_atl AL021929 26.0000 -71.2000 HU 65 1 7 305
1929262N23296 1929 60 NA NA NOT_NAMED 1929-09-23 15:00:00 TS 26.2073 -71.5276 main 579 576 P_____________ AL021929 26.2073 -71.5276 HU 67 1 7 303
1929262N23296 1929 60 NA NA NOT_NAMED 1929-09-23 18:00:00 TS 26.4000 -71.9000 70 hurdat_atl main 591 585 O_____________ hurdat_atl AL021929 26.4000 -71.9000 HU 70 1 8 296
1929262N23296 1929 60 NA NA NOT_NAMED 1929-09-23 21:00:00 TS 26.5650 -72.3350 main 589 548 P_____________ AL021929 26.5650 -72.3350 HU 72 1 9 290
1929262N23296 1929 60 NA NA NOT_NAMED 1929-09-24 00:00:00 TS 26.7000 -72.8000 75 hurdat_atl main 548 515 O_____________ hurdat_atl AL021929 26.7000 -72.8000 HU 75 1 9 287
1929262N23296 1929 60 NA NA NOT_NAMED 1929-09-24 03:00:00 TS 26.8150 -73.2650 main 506 474 P_____________ AL021929 26.8150 -73.2650 HU 75 1 8 284
1929262N23296 1929 60 NA NA NOT_NAMED 1929-09-24 06:00:00 TS 26.9000 -73.7000 75 hurdat_atl main 474 443 O_____________ hurdat_atl AL021929 26.9000 -73.7000 HU 75 1 7 282
1929262N23296 1929 60 NA NA NOT_NAMED 1929-09-24 09:00:00 TS 26.9649 -74.0801 main 443 417 P_____________ AL021929 26.9649 -74.0801 HU 80 1 6 279
1929262N23296 1929 60 NA NA NOT_NAMED 1929-09-24 12:00:00 TS 27.0000 -74.4000 85 hurdat_atl main 417 391 O_____________ hurdat_atl AL021929 27.0000 -74.4000 HU 85 2 5 277
1929262N23296 1929 60 NA NA NOT_NAMED 1929-09-24 15:00:00 TS 27.0299 -74.6649 main 391 375 P_____________ AL021929 27.0299 -74.6649 HU 90 2 4 270
1929262N23296 1929 60 NA NA NOT_NAMED 1929-09-24 18:00:00 TS 27.0000 -74.9000 95 hurdat_atl main 375 352 O_____________ hurdat_atl AL021929 27.0000 -74.9000 HU 95 2 5 251
1929262N23296 1929 60 NA NA NOT_NAMED 1929-09-24 21:00:00 TS 26.8800 -75.1500 main 344 315 P_____________ AL021929 26.8800 -75.1500 HU 100 3 5 236
1929262N23296 1929 60 NA NA NOT_NAMED 1929-09-25 00:00:00 TS 26.7000 -75.4000 105 hurdat_atl main 315 286 O_____________ hurdat_atl AL021929 26.7000 -75.4000 HU 105 3 6 231
1929262N23296 1929 60 NA NA NOT_NAMED 1929-09-25 03:00:00 TS 26.5075 -75.6575 main 278 249 P_____________ AL021929 26.5075 -75.6575 HU 110 3 6 228
1929262N23296 1929 60 NA NA NOT_NAMED 1929-09-25 06:00:00 TS 26.3000 -75.9000 115 hurdat_atl main 249 220 O_____________ hurdat_atl AL021929 26.3000 -75.9000 HU 115 4 6 225
1929262N23296 1929 60 NA NA NOT_NAMED 1929-09-25 09:00:00 TS 26.0925 -76.1150 main 220 192 P_____________ AL021929 26.0925 -76.1150 HU 120 4 5 222
1929262N23296 1929 60 NA NA NOT_NAMED 1929-09-25 12:00:00 TS 25.9000 -76.3000 125 hurdat_atl main 192 178 O_____________ hurdat_atl AL021929 25.9000 -76.3000 HU 125 4 5 221
1929262N23296 1929 60 NA NA NOT_NAMED 1929-09-25 15:00:00 TS 25.7499 -76.4498 main 174 151 P_____________ AL021929 25.7499 -76.4498 HU 130 4 4 222
1929262N23296 1929 60 NA NA NOT_NAMED 1929-09-25 18:00:00 TS 25.6000 -76.6000 135 924 hurdat_atl main 151 123 O_____________ hurdat_atl AL021929 25.6000 -76.6000 HU 135 924 4 5 222
1929262N23296 1929 60 NA NA NOT_NAMED 1929-09-25 21:00:00 TS 25.4000 -76.8001 main 123 96 P_____________ AL021929 25.4000 -76.8001 HU 130 930 4 5 222
1929262N23296 1929 60 NA NA NOT_NAMED 1929-09-26 00:00:00 TS 25.2000 -77.0000 125 936 hurdat_atl main 96 83 O_____________ hurdat_atl AL021929 25.2000 -77.0000 HU 125 936 4 5 222
1929262N23296 1929 60 NA NA NOT_NAMED 1929-09-26 03:00:00 TS 25.0424 -77.1499 main 78 55 P_____________ AL021929 25.0424 -77.1499 HU 122 4 4 222
1929262N23296 1929 60 NA NA NOT_NAMED 1929-09-26 06:00:00 TS 24.9000 -77.3000 120 hurdat_atl main 55 32 O_____________ hurdat_atl AL021929 24.9000 -77.3000 HU 120 4 4 226
1929262N23296 1929 60 NA NA NOT_NAMED 1929-09-26 09:00:00 TS 24.7425 -77.5000 main 30 10 P_____________ AL021929 24.7425 -77.5000 HU 120 4 5 230
1929262N23296 1929 60 NA NA NOT_NAMED 1929-09-26 12:00:00 TS 24.6000 -77.7000 120 hurdat_atl main 10 0 O_____________ hurdat_atl AL021929 24.6000 -77.7000 HU 120 4 4 232
1929262N23296 1929 60 NA NA NOT_NAMED 1929-09-26 15:00:00 TS 24.4924 -77.8499 main 0 0 P_____________ AL021929 24.4924 -77.8499 HU 120 4 3 234
1929262N23296 1929 60 NA NA NOT_NAMED 1929-09-26 18:00:00 TS 24.4000 -78.0000 120 hurdat_atl main 0 0 O_____________ hurdat_atl AL021929 24.4000 -78.0000 HU 120 4 4 237
1929262N23296 1929 60 NA NA NOT_NAMED 1929-09-26 21:00:00 TS 24.2925 -78.1925 main 11 11 P_____________ AL021929 24.2925 -78.1925 HU 120 4 4 241
1929262N23296 1929 60 NA NA NOT_NAMED 1929-09-27 00:00:00 TS 24.2000 -78.4000 120 hurdat_atl main 30 30 O_____________ hurdat_atl AL021929 24.2000 -78.4000 HU 120 4 4 246
1929262N23296 1929 60 NA NA NOT_NAMED 1929-09-27 03:00:00 TS 24.1275 -78.6075 main 52 52 P_____________ AL021929 24.1275 -78.6075 HU 120 4 4 255
1929262N23296 1929 60 NA NA NOT_NAMED 1929-09-27 06:00:00 TS 24.1000 -78.8000 120 hurdat_atl main 63 63 O_____________ hurdat_atl AL021929 24.1000 -78.8000 HU 120 4 3 271
1929262N23296 1929 60 NA NA NOT_NAMED 1929-09-27 09:00:00 TS 24.1350 -78.9575 main 75 67 P_____________ AL021929 24.1350 -78.9575 HU 117 4 3 290
1929262N23296 1929 60 NA NA NOT_NAMED 1929-09-27 12:00:00 TS 24.2000 -79.1000 115 hurdat_atl main 75 75 O_____________ hurdat_atl AL021929 24.2000 -79.1000 HU 115 4 3 292
1929262N23296 1929 60 NA NA NOT_NAMED 1929-09-27 15:00:00 TS 24.2425 -79.2500 main 92 87 P_____________ AL021929 24.2425 -79.2500 HU 112 3 3 290
1929262N23296 1929 60 NA NA NOT_NAMED 1929-09-27 18:00:00 TS 24.3000 -79.4000 110 hurdat_atl main 97 97 O_____________ hurdat_atl AL021929 24.3000 -79.4000 HU 110 3 3 299
1929262N23296 1929 60 NA NA NOT_NAMED 1929-09-27 21:00:00 TS 24.3925 -79.5500 main 103 97 P_____________ AL021929 24.3925 -79.5500 HU 107 3 3 306
1929262N23296 1929 60 NA NA NOT_NAMED 1929-09-28 00:00:00 TS 24.5000 -79.7000 105 hurdat_atl main 97 82 O_____________ hurdat_atl AL021929 24.5000 -79.7000 HU 105 3 3 308
1929262N23296 1929 60 NA NA NOT_NAMED 1929-09-28 03:00:00 TS 24.6000 -79.8425 main 82 60 P_____________ AL021929 24.6000 -79.8425 HU 102 3 3 306
1929262N23296 1929 60 NA NA NOT_NAMED 1929-09-28 06:00:00 TS 24.7000 -80.0000 100 hurdat_atl main 60 49 O_____________ hurdat_atl AL021929 24.7000 -80.0000 HU 100 3 3 296
1929262N23296 1929 60 NA NA NOT_NAMED 1929-09-28 09:00:00 TS 24.7460 -80.1672 main 49 22 P_____________ AL021929 24.7460 -80.1672 HU 100 3 4 299
1929262N23296 1929 60 NA NA NOT_NAMED 1929-09-28 12:00:00 TS 24.9000 -80.4000 100 948 hurdat_atl main 22 11 O_____________ hurdat_atl AL021929 24.9000 -80.4000 HU 100 948 3 6 310
1929262N23296 1929 60 NA NA NOT_NAMED 1929-09-28 13:00:00 TS 25.0000 -80.5000 100 948 hurdat_atl main 15 0 O_____________ hurdat_atl AL021929 25.0000 -80.5000 L HU 100 948 3 7 305
1929262N23296 1929 60 NA GM NOT_NAMED 1929-09-28 15:00:00 TS 25.0900 -80.6965 main 0 0 P_____________ AL021929 25.0900 -80.6965 HU 97 3 6 282
1929262N23296 1929 60 NA GM NOT_NAMED 1929-09-28 18:00:00 TS 25.1000 -81.0000 95 hurdat_atl main 10 0 O_____________ hurdat_atl AL021929 25.1000 -81.0000 HU 95 2 6 283
1929262N23296 1929 60 NA GM NOT_NAMED 1929-09-28 21:00:00 TS 25.2205 -81.3346 main 10 10 P_____________ AL021929 25.2205 -81.3346 HU 92 2 7 295
1929262N23296 1929 60 NA GM NOT_NAMED 1929-09-29 00:00:00 TS 25.4000 -81.7000 90 hurdat_atl main 51 39 O_____________ hurdat_atl AL021929 25.4000 -81.7000 HU 90 2 8 302
1929262N23296 1929 60 NA GM NOT_NAMED 1929-09-29 03:00:00 TS 25.6348 -82.0776 main 52 45 P_____________ AL021929 25.6348 -82.0776 HU 90 2 9 305
1929262N23296 1929 60 NA GM NOT_NAMED 1929-09-29 06:00:00 TS 25.9000 -82.5000 90 hurdat_atl main 73 73 O_____________ hurdat_atl AL021929 25.9000 -82.5000 HU 90 2 10 302
1929262N23296 1929 60 NA GM NOT_NAMED 1929-09-29 09:00:00 TS 26.1425 -82.9852 main 104 96 P_____________ AL021929 26.1425 -82.9852 HU 90 2 10 299
1929262N23296 1929 60 NA GM NOT_NAMED 1929-09-29 12:00:00 TS 26.4000 -83.5000 90 hurdat_atl main 127 127 O_____________ hurdat_atl AL021929 26.4000 -83.5000 HU 90 2 11 301
1929262N23296 1929 60 NA GM NOT_NAMED 1929-09-29 15:00:00 TS 26.6925 -84.0150 main 153 153 P_____________ AL021929 26.6925 -84.0150 HU 90 2 11 304
1929262N23296 1929 60 NA GM NOT_NAMED 1929-09-29 18:00:00 TS 27.0000 -84.5000 90 hurdat_atl main 187 187 O_____________ hurdat_atl AL021929 27.0000 -84.5000 HU 90 2 10 306
1929262N23296 1929 60 NA GM NOT_NAMED 1929-09-29 21:00:00 TS 27.2999 -84.9451 main 207 207 P_____________ AL021929 27.2999 -84.9451 HU 87 2 9 310
1929262N23296 1929 60 NA GM NOT_NAMED 1929-09-30 00:00:00 TS 27.6000 -85.3000 85 hurdat_atl main 234 201 O_____________ hurdat_atl AL021929 27.6000 -85.3000 HU 85 2 8 319
1929262N23296 1929 60 NA GM NOT_NAMED 1929-09-30 03:00:00 TS 27.8998 -85.5378 main 201 169 P_____________ AL021929 27.8998 -85.5378 HU 85 2 7 329
1929262N23296 1929 60 NA GM NOT_NAMED 1929-09-30 06:00:00 TS 28.2000 -85.7000 85 hurdat_atl main 169 139 O_____________ hurdat_atl AL021929 28.2000 -85.7000 HU 85 2 7 334
1929262N23296 1929 60 NA GM NOT_NAMED 1929-09-30 09:00:00 TS 28.5000 -85.8651 main 142 116 P_____________ AL021929 28.5000 -85.8651 HU 82 1 7 336
1929262N23296 1929 60 NA GM NOT_NAMED 1929-09-30 12:00:00 TS 28.8000 -86.0000 80 hurdat_atl main 116 95 O_____________ hurdat_atl AL021929 28.8000 -86.0000 HU 80 1 7 339
1929262N23296 1929 60 NA GM NOT_NAMED 1929-09-30 15:00:00 TS 29.1075 -86.1374 main 95 84 P_____________ AL021929 29.1075 -86.1374 HU 77 1 6 344
1929262N23296 1929 60 NA GM NOT_NAMED 1929-09-30 18:00:00 TS 29.4000 -86.2000 75 hurdat_atl main 84 72 O_____________ hurdat_atl AL021929 29.4000 -86.2000 HU 75 1 6 0
1929262N23296 1929 60 NA GM NOT_NAMED 1929-09-30 21:00:00 TS 29.6616 -86.1512 main 62 34 P_____________ AL021929 29.6616 -86.1512 HU 72 1 5 19
1929262N23296 1929 60 NA GM NOT_NAMED 1929-10-01 00:00:00 TS 29.9000 -86.0000 70 hurdat_atl main 34 9 O_____________ hurdat_atl AL021929 29.9000 -86.0000 HU 70 1 5 33
1929262N23296 1929 60 NA GM NOT_NAMED 1929-10-01 03:00:00 TS 30.1158 -85.8095 main 9 0 P_____________ AL021929 30.1158 -85.8095 HU 70 1 6 41
1929262N23296 1929 60 NA GM NOT_NAMED 1929-10-01 04:00:00 TS 30.2000 -85.7000 70 975 hurdat_atl main 0 0 O_____________ hurdat_atl AL021929 30.2000 -85.7000 L HU 70 975 1 9 51
1929262N23296 1929 60 NA NA NOT_NAMED 1929-10-01 06:00:00 TS 30.4000 -85.4000 60 975 hurdat_atl main 0 0 O_____________ hurdat_atl AL021929 30.4000 -85.4000 TS 60 975 0 10 57
1929262N23296 1929 60 NA NA NOT_NAMED 1929-10-01 09:00:00 TS 30.6739 -84.8534 main 0 0 P_____________ AL021929 30.6739 -84.8534 TS 57 980 0 12 60
1929262N23296 1929 60 NA NA NOT_NAMED 1929-10-01 12:00:00 ET 31.0000 -84.2000 55 986 hurdat_atl main 0 0 O_____________ hurdat_atl AL021929 31.0000 -84.2000 EX 55 986 -4 14 57
1929262N23296 1929 60 NA NA NOT_NAMED 1929-10-01 15:00:00 ET 31.4323 -83.4790 main 0 0 P_____________ AL021929 31.4323 -83.4790 EX 52 -4 16 52
1929262N23296 1929 60 NA NA NOT_NAMED 1929-10-01 18:00:00 ET 32.0000 -82.7000 50 hurdat_atl main 0 0 O_____________ hurdat_atl AL021929 32.0000 -82.7000 EX 50 -4 18 47
1929262N23296 1929 60 NA NA NOT_NAMED 1929-10-01 21:00:00 ET 32.6972 -81.9068 main 0 0 P_____________ AL021929 32.6972 -81.9068 EX 50 -4 20 42
1929262N23296 1929 60 NA NA NOT_NAMED 1929-10-02 00:00:00 ET 33.5000 -81.1000 50 hurdat_atl main 0 0 O_____________ hurdat_atl AL021929 33.5000 -81.1000 EX 50 -4 21 39
1929262N23296 1929 60 NA NA NOT_NAMED 1929-10-02 03:00:00 ET 34.3496 -80.2920 main 0 0 P_____________ AL021929 34.3496 -80.2920 EX 50 -4 22 38
1929262N23296 1929 60 NA NA NOT_NAMED 1929-10-02 06:00:00 ET 35.2000 -79.5000 50 hurdat_atl main 0 0 O_____________ hurdat_atl AL021929 35.2000 -79.5000 EX 50 -4 21 39
1929262N23296 1929 60 NA NA NOT_NAMED 1929-10-02 09:00:00 ET 35.9575 -78.7039 main 0 0 P_____________ AL021929 35.9575 -78.7039 EX 50 -4 19 39
1929262N23296 1929 60 NA NA NOT_NAMED 1929-10-02 12:00:00 ET 36.7000 -78.0000 50 hurdat_atl main 0 0 O_____________ hurdat_atl AL021929 36.7000 -78.0000 EX 50 -4 18 33
1929262N23296 1929 60 NA NA NOT_NAMED 1929-10-02 15:00:00 ET 37.4920 -77.4387 main 0 0 P_____________ AL021929 37.4920 -77.4387 EX 50 -4 18 26
1929262N23296 1929 60 NA NA NOT_NAMED 1929-10-02 18:00:00 ET 38.3000 -77.0000 50 hurdat_atl main 0 0 O_____________ hurdat_atl AL021929 38.3000 -77.0000 EX 50 -4 17 21
1929262N23296 1929 60 NA NA NOT_NAMED 1929-10-02 21:00:00 ET 39.0996 -76.6332 main 0 0 P_____________ AL021929 39.0996 -76.6332 EX 50 -4 17 19
1929262N23296 1929 60 NA NA NOT_NAMED 1929-10-03 00:00:00 ET 39.9000 -76.3000 50 hurdat_atl main 0 0 O_____________ hurdat_atl AL021929 39.9000 -76.3000 EX 50 -4 17 19
1929262N23296 1929 60 NA NA NOT_NAMED 1929-10-03 03:00:00 ET 40.7223 -75.9218 main 0 0 P_____________ AL021929 40.7223 -75.9218 EX 50 -4 17 21
1929262N23296 1929 60 NA NA NOT_NAMED 1929-10-03 06:00:00 ET 41.5000 -75.5000 50 hurdat_atl main 0 0 O_____________ hurdat_atl AL021929 41.5000 -75.5000 EX 50 -4 16 25
1929262N23296 1929 60 NA NA NOT_NAMED 1929-10-03 09:00:00 ET 42.1723 -75.0213 main 0 0 P_____________ AL021929 42.1723 -75.0213 EX 50 -4 15 30
1929262N23296 1929 60 NA NA NOT_NAMED 1929-10-03 12:00:00 ET 42.8000 -74.5000 50 hurdat_atl main 0 0 O_____________ hurdat_atl AL021929 42.8000 -74.5000 EX 50 -4 15 31
1929262N23296 1929 60 NA NA NOT_NAMED 1929-10-03 15:00:00 ET 43.4571 -73.9713 main 0 0 P_____________ AL021929 43.4571 -73.9713 EX 50 -4 15 32
1929262N23296 1929 60 NA NA NOT_NAMED 1929-10-03 18:00:00 ET 44.1000 -73.4000 50 hurdat_atl main 0 0 O_____________ hurdat_atl AL021929 44.1000 -73.4000 EX 50 -4 15 34
1929262N23296 1929 60 NA NA NOT_NAMED 1929-10-03 21:00:00 ET 44.7221 -72.7790 main 0 0 P_____________ AL021929 44.7221 -72.7790 EX 47 -4 15 38
1929262N23296 1929 60 NA NA NOT_NAMED 1929-10-04 00:00:00 ET 45.3000 -72.1000 45 hurdat_atl main 0 0 O_____________ hurdat_atl AL021929 45.3000 -72.1000 EX 45 -4 15 42
1929262N23296 1929 60 NA NA NOT_NAMED 1929-10-04 03:00:00 ET 45.8223 -71.3638 main 0 0 P_____________ AL021929 45.8223 -71.3638 EX 45 -4 14 46
1929262N23296 1929 60 NA NA NOT_NAMED 1929-10-04 06:00:00 ET 46.3000 -70.6000 45 hurdat_atl main 0 0 O_____________ hurdat_atl AL021929 46.3000 -70.6000 EX 45 -4 14 47
1929262N23296 1929 60 NA NA NOT_NAMED 1929-10-04 09:00:00 ET 46.7637 -69.8854 main 0 0 P_____________ AL021929 46.7637 -69.8854 EX 42 -4 14 49
1929262N23296 1929 60 NA NA NOT_NAMED 1929-10-04 12:00:00 ET 47.2000 -69.1000 40 hurdat_atl main 0 0 O_____________ hurdat_atl AL021929 47.2000 -69.1000 EX 40 -4 14 54
1929262N23296 1929 60 NA NA NOT_NAMED 1929-10-04 15:00:00 ET 47.6063 -68.1803 main 0 0 P_____________ AL021929 47.6063 -68.1803 EX 40 -4 16 59
1929262N23296 1929 60 NA NA NOT_NAMED 1929-10-04 18:00:00 ET 48.0000 -67.1000 40 hurdat_atl main 0 0 O_____________ hurdat_atl AL021929 48.0000 -67.1000 EX 40 -4 17 63
1929262N23296 1929 60 NA NA NOT_NAMED 1929-10-04 21:00:00 ET 48.4011 -65.8524 main 0 0 P_____________ AL021929 48.4011 -65.8524 EX 37 -4 19 65
1929262N23296 1929 60 NA NA NOT_NAMED 1929-10-05 00:00:00 ET 48.8000 -64.5000 35 hurdat_atl main 0 O_____________ hurdat_atl AL021929 48.8000 -64.5000 EX 35 -4 19 66

About IBTrACS Database

This database is a web-friendly format of International Best Track Archive for Climate Stewardship (IBTrACS), a global best track data archive curated by NOAA dating back to 1842.

Updated: 2021-12-06